createdAt,value
2022-10-04T00:01:47.038Z,5.90
2022-10-04T00:04:19.028Z,5.05
2022-10-04T00:06:54.631Z,4.93
2022-10-04T00:09:24.391Z,4.50
2022-10-04T00:11:54.696Z,4.93
2022-10-04T00:14:26.464Z,4.63
2022-10-04T00:16:54.804Z,5.22
2022-10-04T00:19:38.309Z,4.90
2022-10-04T00:22:19.098Z,5.43
2022-10-04T00:25:20.279Z,5.35
2022-10-04T00:28:24.589Z,5.40
2022-10-04T00:31:15.897Z,5.07
2022-10-04T00:33:44.297Z,5.18
2022-10-04T00:36:47.409Z,5.47
2022-10-04T00:39:26.387Z,5.43
2022-10-04T00:42:19.774Z,5.35
2022-10-04T00:44:52.018Z,5.82
2022-10-04T00:47:31.510Z,5.60
2022-10-04T00:50:07.508Z,5.53
2022-10-04T00:52:40.764Z,5.47
2022-10-04T00:55:10.869Z,5.75
2022-10-04T00:57:42.248Z,5.38
2022-10-04T01:00:13.248Z,5.10
2022-10-04T01:02:51.292Z,4.60
2022-10-04T01:05:21.400Z,4.63
2022-10-04T01:07:52.987Z,4.60
2022-10-04T01:10:32.935Z,4.80
2022-10-04T01:13:08.058Z,4.78
2022-10-04T01:15:43.287Z,5.07
2022-10-04T01:18:14.820Z,4.95
2022-10-04T01:20:52.892Z,5.90
2022-10-04T01:23:36.857Z,5.20
2022-10-04T01:26:05.649Z,5.20
2022-10-04T01:28:33.938Z,5.28
2022-10-04T01:31:01.117Z,5.63
2022-10-04T01:33:28.178Z,5.72
2022-10-04T01:35:55.171Z,6.60
2022-10-04T01:38:21.851Z,8.85
2022-10-04T01:40:54.895Z,6.88
2022-10-04T01:43:27.960Z,7.57
2022-10-04T01:46:01.228Z,7.90
2022-10-04T01:48:33.329Z,6.72
2022-10-04T01:51:05.657Z,6.68
2022-10-04T01:53:40.649Z,5.95
2022-10-04T01:56:12.951Z,6.80
2022-10-04T01:58:43.144Z,5.63
2022-10-04T02:01:13.705Z,6.30
2022-10-04T02:03:43.879Z,5.85
2022-10-04T02:06:12.836Z,5.50
2022-10-04T02:08:49.645Z,12.23
2022-10-04T02:11:21.473Z,6.60
2022-10-04T02:13:51.663Z,6.88
2022-10-04T02:16:22.122Z,6.65
2022-10-04T02:18:51.363Z,6.15
2022-10-04T02:21:19.908Z,5.10
2022-10-04T02:23:47.729Z,5.25
2022-10-04T02:26:14.588Z,6.82
2022-10-04T02:28:42.892Z,6.28
2022-10-04T02:31:28.652Z,6.60
2022-10-04T02:33:58.564Z,6.75
2022-10-04T02:36:28.639Z,6.68
2022-10-04T02:39:02.155Z,7.25
2022-10-04T02:41:33.910Z,7.13
2022-10-04T02:44:10.136Z,7.07
2022-10-04T02:46:46.785Z,8.15
2022-10-04T02:49:22.911Z,6.93
2022-10-04T02:51:54.492Z,7.32
2022-10-04T02:54:28.390Z,7.20
2022-10-04T02:59:24.177Z,7.18
2022-10-04T03:01:53.695Z,7.35
2022-10-04T03:04:23.471Z,6.55
2022-10-04T03:06:51.637Z,6.40
2022-10-04T03:09:25.029Z,6.38
2022-10-04T03:11:54.689Z,6.78
2022-10-04T03:14:25.353Z,5.90
2022-10-04T03:16:55.661Z,6.10
2022-10-04T03:19:24.827Z,5.82
2022-10-04T03:21:55.222Z,5.25
2022-10-04T03:24:28.433Z,5.03
2022-10-04T03:26:57.126Z,4.97
2022-10-04T03:29:28.303Z,5.32
2022-10-04T03:31:59.753Z,4.88
2022-10-04T03:34:32.025Z,4.72
2022-10-04T03:37:00.968Z,5.25
2022-10-04T03:39:32.071Z,5.30
2022-10-04T03:41:59.859Z,5.38
2022-10-04T03:44:27.987Z,4.95
2022-10-04T03:46:54.968Z,5.72
2022-10-04T03:49:30.275Z,4.93
2022-10-04T03:51:58.835Z,5.45
2022-10-04T03:54:28.076Z,5.95
2022-10-04T03:56:56.885Z,4.70
2022-10-04T03:59:26.371Z,5.38
2022-10-04T04:02:06.733Z,4.50
2022-10-04T04:04:43.256Z,5.03
2022-10-04T04:07:14.457Z,4.85
2022-10-04T04:09:45.648Z,4.68
2022-10-04T04:12:18.129Z,5.03
2022-10-04T04:14:48.763Z,4.82
2022-10-04T04:17:35.946Z,5.28
2022-10-04T04:20:07.976Z,5.20
2022-10-04T04:22:36.382Z,5.65
2022-10-04T04:25:08.314Z,5.28
2022-10-04T04:27:40.033Z,4.95
2022-10-04T04:30:08.980Z,5.80
2022-10-04T04:32:41.288Z,5.05
2022-10-04T04:35:22.007Z,4.80
2022-10-04T04:38:04.475Z,4.88
2022-10-04T04:40:31.450Z,5.45
2022-10-04T04:43:00.204Z,5.70
2022-10-04T04:45:30.914Z,5.15
2022-10-04T04:48:01.287Z,5.40
2022-10-04T04:50:31.718Z,5.30
2022-10-04T04:53:01.324Z,5.43
2022-10-04T04:55:44.680Z,5.82
2022-10-04T04:58:22.192Z,6.00
2022-10-04T05:00:57.211Z,6.65
2022-10-04T05:03:26.333Z,5.90
2022-10-04T05:05:54.821Z,5.88
2022-10-04T05:08:24.292Z,6.20
2022-10-04T05:11:01.217Z,6.30
2022-10-04T05:13:34.262Z,6.43
2022-10-04T05:16:01.979Z,6.07
2022-10-04T05:18:32.181Z,5.88
2022-10-04T05:21:04.932Z,6.10
2022-10-04T05:23:32.492Z,6.00
2022-10-04T05:26:02.243Z,6.00
2022-10-04T05:28:29.791Z,6.15
2022-10-04T05:31:21.724Z,5.97
2022-10-04T05:33:51.844Z,5.88
2022-10-04T05:36:50.906Z,6.50
2022-10-04T05:39:25.222Z,6.18
2022-10-04T05:42:01.493Z,6.68
2022-10-04T05:44:31.719Z,6.45
2022-10-04T05:47:01.212Z,6.43
2022-10-04T05:49:34.689Z,6.47
2022-10-04T05:52:04.196Z,6.22
2022-10-04T05:54:35.649Z,6.22
2022-10-04T05:57:15.911Z,6.10
2022-10-04T06:00:01.907Z,6.68
2022-10-04T06:02:46.712Z,7.22
2022-10-04T06:05:23.578Z,6.07
2022-10-04T06:08:00.354Z,6.68
2022-10-04T06:10:51.354Z,5.90
2022-10-04T06:13:39.258Z,6.82
2022-10-04T06:16:17.728Z,5.75
2022-10-04T06:19:13.643Z,6.15
2022-10-04T06:21:56.164Z,6.45
2022-10-04T06:24:27.536Z,5.97
2022-10-04T06:26:59.997Z,5.75
2022-10-04T06:29:32.536Z,6.53
2022-10-04T06:32:28.122Z,6.55
2022-10-04T06:35:10.999Z,6.90
2022-10-04T06:38:06.715Z,7.55
2022-10-04T06:40:49.832Z,6.75
2022-10-04T06:43:36.689Z,7.53
2022-10-04T06:46:15.492Z,8.07
2022-10-04T06:49:07.638Z,8.40
2022-10-04T06:51:53.441Z,8.63
2022-10-04T06:54:38.787Z,8.82
2022-10-04T06:57:34.729Z,8.73
2022-10-04T07:00:09.865Z,8.35
2022-10-04T07:02:44.399Z,9.35
2022-10-04T07:05:30.227Z,8.52
2022-10-04T07:08:06.797Z,9.55
2022-10-04T07:10:41.085Z,8.77
2022-10-04T07:13:31.593Z,8.35
2022-10-04T07:16:04.243Z,8.30
2022-10-04T07:18:36.586Z,9.07
2022-10-04T07:21:08.612Z,9.73
2022-10-04T07:23:43.689Z,9.55
2022-10-04T07:26:22.794Z,9.18
2022-10-04T07:29:09.578Z,8.75
2022-10-04T07:31:38.570Z,8.95
2022-10-04T07:34:15.577Z,8.45
2022-10-04T07:36:49.285Z,8.57
2022-10-04T07:39:20.032Z,9.07
2022-10-04T07:41:53.569Z,9.35
2022-10-04T07:44:34.561Z,8.85
2022-10-04T07:47:06.244Z,8.38
2022-10-04T07:49:38.768Z,7.68
2022-10-04T07:52:51.106Z,7.75
2022-10-04T07:55:24.006Z,7.45
2022-10-04T07:58:07.440Z,7.30
2022-10-04T08:00:48.791Z,8.03
2022-10-04T08:03:41.820Z,7.75
2022-10-04T08:06:17.060Z,8.25
2022-10-04T08:09:16.972Z,8.05
2022-10-04T08:11:51.203Z,7.90
2022-10-04T08:14:28.165Z,9.15
2022-10-04T08:17:10.799Z,11.15
2022-10-04T08:19:51.561Z,7.10
2022-10-04T08:22:27.592Z,6.90
2022-10-04T08:25:03.873Z,6.95
2022-10-04T08:27:39.720Z,6.95
2022-10-04T08:30:16.278Z,7.50
2022-10-04T08:33:03.873Z,6.43
2022-10-04T08:35:36.601Z,4.80
2022-10-04T08:38:34.939Z,4.68
2022-10-04T08:41:34.685Z,4.50
2022-10-04T08:44:49.848Z,4.28
2022-10-04T08:50:43.125Z,3.75
2022-10-04T08:53:43.770Z,3.50
2022-10-04T08:56:19.297Z,3.92
2022-10-04T08:59:17.594Z,3.80
2022-10-04T09:02:21.030Z,2.13
2022-10-04T09:05:16.701Z,2.65
2022-10-04T14:36:40.807Z,2.10
2022-10-04T14:39:36.010Z,1.83
2022-10-04T14:42:24.568Z,1.55
2022-10-04T14:45:15.413Z,1.60
2022-10-04T14:48:20.355Z,2.13
2022-10-04T14:51:01.229Z,1.77
2022-10-04T14:53:37.194Z,1.80
2022-10-04T14:56:45.590Z,1.70
2022-10-04T14:59:26.118Z,1.83
2022-10-04T15:02:19.944Z,1.92
2022-10-04T15:05:12.872Z,1.60
2022-10-04T15:07:46.906Z,1.48
2022-10-04T15:10:20.191Z,1.88
2022-10-04T15:13:11.115Z,2.00
2022-10-04T15:15:57.239Z,1.70
2022-10-04T15:18:37.808Z,1.42
2022-10-04T15:21:20.397Z,1.60
2022-10-04T15:23:54.706Z,1.75
2022-10-04T15:26:54.724Z,2.05
2022-10-04T15:29:28.132Z,1.40
2022-10-04T15:32:07.361Z,1.80
2022-10-04T15:34:44.173Z,1.77
2022-10-04T15:37:20.297Z,1.65
2022-10-04T15:40:18.964Z,1.63
2022-10-04T15:43:15.289Z,1.52
2022-10-04T15:46:41.563Z,1.40
2022-10-04T15:49:24.962Z,1.45
2022-10-04T15:52:14.454Z,2.20
2022-10-04T15:54:52.349Z,1.65
2022-10-04T15:57:32.173Z,1.23
2022-10-04T16:00:08.516Z,1.70
2022-10-04T16:02:55.672Z,1.70
2022-10-04T16:05:27.699Z,1.42
2022-10-04T16:08:22.502Z,1.75
2022-10-04T16:11:25.009Z,1.52
2022-10-04T16:14:06.837Z,1.50
2022-10-04T16:17:02.642Z,1.63
2022-10-04T16:19:43.879Z,1.85
2022-10-04T16:22:16.007Z,1.88
2022-10-04T16:24:51.385Z,1.60
2022-10-04T16:27:43.033Z,1.70
2022-10-04T16:30:27.832Z,1.70
2022-10-04T16:33:25.900Z,2.03
2022-10-04T16:36:08.643Z,1.88
2022-10-04T16:39:04.033Z,1.90
2022-10-04T16:41:37.382Z,2.00
2022-10-04T16:44:10.521Z,1.52
2022-10-04T16:46:45.077Z,2.05
2022-10-04T16:49:24.869Z,2.20
2022-10-04T16:52:12.368Z,1.85
2022-10-04T16:55:10.198Z,1.80
2022-10-04T16:57:38.218Z,2.20
2022-10-04T17:00:33.739Z,2.22
2022-10-04T17:03:15.107Z,2.03
2022-10-04T17:05:56.601Z,2.42
2022-10-04T17:08:43.298Z,2.78
2022-10-04T17:11:58.360Z,3.25
2022-10-04T17:17:21.775Z,2.92
2022-10-04T17:19:52.964Z,3.30
2022-10-04T17:22:33.562Z,3.10
2022-10-04T17:25:15.541Z,3.25
2022-10-04T17:27:49.795Z,3.15
2022-10-04T17:30:21.582Z,10.80
2022-10-04T17:33:18.103Z,23.50
2022-10-04T17:36:50.359Z,2.72
2022-10-04T17:39:33.411Z,3.20
2022-10-04T17:42:08.278Z,2.67
2022-10-04T17:44:43.879Z,2.72
2022-10-04T17:47:14.836Z,4.22
2022-10-04T17:50:04.389Z,3.70
2022-10-04T17:52:58.875Z,4.72
2022-10-04T17:57:54.259Z,4.65
2022-10-04T18:00:23.126Z,4.78
2022-10-04T18:03:04.660Z,4.95
2022-10-04T18:05:34.586Z,4.70
2022-10-04T18:08:04.557Z,5.00
2022-10-04T18:10:33.036Z,4.85
2022-10-04T18:13:01.598Z,5.40
2022-10-04T18:15:30.628Z,4.80
2022-10-04T18:18:07.506Z,5.10
2022-10-04T18:20:35.621Z,5.05
2022-10-04T18:23:15.040Z,5.20
2022-10-04T18:25:43.000Z,5.78
2022-10-04T18:28:13.123Z,6.13
2022-10-04T18:30:53.822Z,5.90
2022-10-04T18:33:26.109Z,6.72
2022-10-04T18:36:01.796Z,5.85
2022-10-04T18:38:31.750Z,5.60
2022-10-04T18:41:01.530Z,5.80
2022-10-04T18:43:30.739Z,5.85
2022-10-04T18:46:02.945Z,5.75
2022-10-04T18:48:37.810Z,5.82
2022-10-04T18:51:16.607Z,5.85
2022-10-04T18:53:46.876Z,6.70
2022-10-04T18:56:14.420Z,10.93
2022-10-04T18:59:08.852Z,6.68
2022-10-04T19:02:04.358Z,6.93
2022-10-04T19:04:38.995Z,6.75
2022-10-04T19:07:09.977Z,7.68
2022-10-04T19:09:47.444Z,7.70
2022-10-04T19:12:17.016Z,9.40
2022-10-04T19:14:48.031Z,9.00
2022-10-04T19:17:19.506Z,10.32
2022-10-04T19:19:51.164Z,8.07
2022-10-04T19:22:23.578Z,7.15
2022-10-04T19:25:07.782Z,7.10
2022-10-04T19:30:11.842Z,7.35
2022-10-04T19:32:44.910Z,7.28
2022-10-04T19:35:18.165Z,7.30
2022-10-04T19:37:48.875Z,8.20
2022-10-04T19:40:21.295Z,7.32
2022-10-04T19:42:53.349Z,8.23
2022-10-04T19:45:25.686Z,10.32
2022-10-04T19:47:57.140Z,8.82
2022-10-04T19:50:27.414Z,9.35
2022-10-04T19:52:58.040Z,6.22
2022-10-04T19:55:30.451Z,6.05
2022-10-04T19:58:02.296Z,5.90
2022-10-04T20:00:30.283Z,5.32
2022-10-04T20:02:58.304Z,5.03
2022-10-04T20:05:26.686Z,6.22
2022-10-04T20:08:01.719Z,5.40
2022-10-04T20:10:33.978Z,5.97
2022-10-04T20:13:22.504Z,5.93
2022-10-04T20:15:50.600Z,7.72
2022-10-04T20:18:35.969Z,10.50
2022-10-04T20:21:04.766Z,11.40
2022-10-04T20:23:59.336Z,8.57
2022-10-04T20:29:33.036Z,6.68
2022-10-04T20:32:01.809Z,5.90
2022-10-04T20:34:35.754Z,6.00
2022-10-04T20:39:59.328Z,4.65
2022-10-04T20:42:36.321Z,4.95
2022-10-04T20:45:06.339Z,4.78
2022-10-04T20:47:42.872Z,5.28
2022-10-04T20:50:31.293Z,4.60
2022-10-04T20:52:59.769Z,4.72
2022-10-04T20:55:29.724Z,5.22
2022-10-04T20:57:58.024Z,5.88
2022-10-04T21:00:26.470Z,6.20
2022-10-04T21:03:14.338Z,5.85
2022-10-04T21:05:40.951Z,6.32
2022-10-04T21:08:28.630Z,5.60
2022-10-04T21:11:04.437Z,6.03
2022-10-04T21:13:45.406Z,5.63
2022-10-04T21:16:33.460Z,4.88
2022-10-04T21:19:15.913Z,5.10
2022-10-04T21:21:51.823Z,5.10
2022-10-04T21:24:29.560Z,6.53
2022-10-04T21:26:57.045Z,6.47
2022-10-04T21:29:23.665Z,6.15
2022-10-04T21:31:51.049Z,6.05
2022-10-04T21:34:34.788Z,5.80
2022-10-04T21:37:05.979Z,6.07
2022-10-04T21:39:32.745Z,5.80
2022-10-04T21:41:59.730Z,6.35
2022-10-04T21:44:26.434Z,5.85
2022-10-04T21:46:52.942Z,46.15
2022-10-04T21:49:19.725Z,62.97
2022-10-04T21:51:46.997Z,40.67
2022-10-04T21:54:15.338Z,33.63
2022-10-04T21:56:42.546Z,27.08
2022-10-04T21:59:09.442Z,24.40
2022-10-04T22:01:36.160Z,17.42
2022-10-04T22:04:02.734Z,16.63
2022-10-04T22:06:29.407Z,14.90
2022-10-04T22:08:56.000Z,15.35
2022-10-04T22:11:23.978Z,18.88
2022-10-04T22:13:51.170Z,19.60
2022-10-04T22:16:18.302Z,20.65
2022-10-04T22:18:44.858Z,25.63
2022-10-04T22:21:11.431Z,17.05
2022-10-04T22:23:39.136Z,19.60
2022-10-04T22:26:09.516Z,20.80
2022-10-04T22:28:38.002Z,22.70
2022-10-04T22:31:09.987Z,11.77
2022-10-04T22:33:37.239Z,14.63
2022-10-04T22:36:11.740Z,9.70
2022-10-04T22:38:38.398Z,10.02
2022-10-04T22:41:08.712Z,8.05
2022-10-04T22:43:35.171Z,6.90
2022-10-04T22:46:03.146Z,6.22
2022-10-04T22:48:29.633Z,5.95
2022-10-04T22:50:56.759Z,6.28
2022-10-04T22:53:23.508Z,6.05
2022-10-04T22:55:50.723Z,11.60
2022-10-04T22:58:17.637Z,8.88
2022-10-04T23:00:44.765Z,11.45
2022-10-04T23:03:21.594Z,9.85
2022-10-04T23:05:48.131Z,8.60
2022-10-04T23:08:15.012Z,8.13
2022-10-04T23:10:41.508Z,7.57
2022-10-04T23:13:07.943Z,6.07
2022-10-04T23:15:34.798Z,7.05
2022-10-04T23:18:01.382Z,6.22
2022-10-04T23:20:29.724Z,7.45
2022-10-04T23:22:59.553Z,6.55
2022-10-04T23:25:27.133Z,5.93
2022-10-04T23:27:55.084Z,5.80
2022-10-04T23:30:21.842Z,5.45
2022-10-04T23:32:49.078Z,5.63
2022-10-04T23:35:17.232Z,5.18
2022-10-04T23:37:45.446Z,5.55
2022-10-04T23:40:12.724Z,5.90
2022-10-04T23:42:39.319Z,6.30
2022-10-04T23:45:11.515Z,9.00
2022-10-04T23:47:38.006Z,9.07
2022-10-04T23:50:15.013Z,7.43
2022-10-04T23:52:41.515Z,6.72
2022-10-04T23:55:16.085Z,6.13
2022-10-04T23:57:42.606Z,6.10
